sensor_id;sensor_type;location;lat;lon;timestamp;temperature;humidity
5210;DHT22;2624;48.048;11.706;2023-09-19T00:00:41;16.00;99.90
5210;DHT22;2624;48.048;11.706;2023-09-19T00:05:44;16.00;99.90
5210;DHT22;2624;48.048;11.706;2023-09-19T00:10:47;16.10;99.90
5210;DHT22;2624;48.048;11.706;2023-09-19T00:15:49;15.90;99.90
5210;DHT22;2624;48.048;11.706;2023-09-19T00:20:51;15.90;99.90
5210;DHT22;2624;48.048;11.706;2023-09-19T00:25:58;16.00;99.90
5210;DHT22;2624;48.048;11.706;2023-09-19T00:31:00;15.80;99.90
5210;DHT22;2624;48.048;11.706;2023-09-19T00:36:03;15.80;99.90
5210;DHT22;2624;48.048;11.706;2023-09-19T00:41:07;15.80;99.90
5210;DHT22;2624;48.048;11.706;2023-09-19T00:46:09;16.00;99.90
5210;DHT22;2624;48.048;11.706;2023-09-19T00:51:11;15.90;99.90
5210;DHT22;2624;48.048;11.706;2023-09-19T00:56:15;15.90;99.90
5210;DHT22;2624;48.048;11.706;2023-09-19T01:01:19;15.90;99.90
5210;DHT22;2624;48.048;11.706;2023-09-19T01:06:21;16.00;99.90
5210;DHT22;2624;48.048;11.706;2023-09-19T01:11:32;15.80;99.90
5210;DHT22;2624;48.048;11.706;2023-09-19T01:16:39;15.90;99.90
5210;DHT22;2624;48.048;11.706;2023-09-19T01:21:49;16.10;99.90
5210;DHT22;2624;48.048;11.706;2023-09-19T01:27:12;16.00;99.90
5210;DHT22;2624;48.048;11.706;2023-09-19T01:32:21;16.00;99.90
5210;DHT22;2624;48.048;11.706;2023-09-19T01:37:25;16.00;99.90
5210;DHT22;2624;48.048;11.706;2023-09-19T01:42:35;16.00;99.90
5210;DHT22;2624;48.048;11.706;2023-09-19T01:47:46;16.10;99.90
5210;DHT22;2624;48.048;11.706;2023-09-19T01:52:53;16.10;99.90
5210;DHT22;2624;48.048;11.706;2023-09-19T01:58:01;16.10;99.90
5210;DHT22;2624;48.048;11.706;2023-09-19T02:03:08;16.10;99.90
5210;DHT22;2624;48.048;11.706;2023-09-19T02:08:10;16.10;99.90
5210;DHT22;2624;48.048;11.706;2023-09-19T02:13:12;16.00;99.90
5210;DHT22;2624;48.048;11.706;2023-09-19T02:18:15;16.00;99.90
5210;DHT22;2624;48.048;11.706;2023-09-19T02:23:17;16.00;99.90
5210;DHT22;2624;48.048;11.706;2023-09-19T02:28:19;16.00;99.90
5210;DHT22;2624;48.048;11.706;2023-09-19T02:33:22;16.00;99.90
5210;DHT22;2624;48.048;11.706;2023-09-19T02:38:24;16.10;99.90
5210;DHT22;2624;48.048;11.706;2023-09-19T02:43:26;16.00;99.90
5210;DHT22;2624;48.048;11.706;2023-09-19T02:48:30;16.10;99.90
5210;DHT22;2624;48.048;11.706;2023-09-19T02:53:33;16.00;99.90
5210;DHT22;2624;48.048;11.706;2023-09-19T02:58:36;16.00;99.90
5210;DHT22;2624;48.048;11.706;2023-09-19T03:03:39;15.90;99.90
5210;DHT22;2624;48.048;11.706;2023-09-19T03:08:41;15.80;99.90
5210;DHT22;2624;48.048;11.706;2023-09-19T03:13:44;15.90;99.90
5210;DHT22;2624;48.048;11.706;2023-09-19T03:18:47;15.90;99.90
5210;DHT22;2624;48.048;11.706;2023-09-19T03:23:50;16.00;99.90
5210;DHT22;2624;48.048;11.706;2023-09-19T03:28:51;15.80;99.90
5210;DHT22;2624;48.048;11.706;2023-09-19T03:33:55;15.70;99.90
5210;DHT22;2624;48.048;11.706;2023-09-19T03:38:57;15.80;99.90
5210;DHT22;2624;48.048;11.706;2023-09-19T03:43:58;15.90;99.90
5210;DHT22;2624;48.048;11.706;2023-09-19T03:49:02;16.00;99.90
5210;DHT22;2624;48.048;11.706;2023-09-19T03:54:04;16.10;99.90
5210;DHT22;2624;48.048;11.706;2023-09-19T03:59:06;16.10;99.90
5210;DHT22;2624;48.048;11.706;2023-09-19T04:04:10;15.90;99.90
5210;DHT22;2624;48.048;11.706;2023-09-19T04:09:13;16.00;99.90
5210;DHT22;2624;48.048;11.706;2023-09-19T04:14:15;16.00;99.90
5210;DHT22;2624;48.048;11.706;2023-09-19T04:19:18;16.00;99.90
5210;DHT22;2624;48.048;11.706;2023-09-19T04:24:22;16.00;99.90
5210;DHT22;2624;48.048;11.706;2023-09-19T04:29:24;15.90;99.90
5210;DHT22;2624;48.048;11.706;2023-09-19T04:34:28;15.90;99.90
5210;DHT22;2624;48.048;11.706;2023-09-19T04:39:31;15.90;99.90
5210;DHT22;2624;48.048;11.706;2023-09-19T04:44:32;15.90;99.90
5210;DHT22;2624;48.048;11.706;2023-09-19T04:49:35;15.90;99.90
5210;DHT22;2624;48.048;11.706;2023-09-19T04:54:37;15.90;99.90
5210;DHT22;2624;48.048;11.706;2023-09-19T04:59:40;15.90;99.90
5210;DHT22;2624;48.048;11.706;2023-09-19T05:04:43;16.00;99.90
5210;DHT22;2624;48.048;11.706;2023-09-19T05:09:45;15.90;99.90
5210;DHT22;2624;48.048;11.706;2023-09-19T05:14:46;15.90;99.90
5210;DHT22;2624;48.048;11.706;2023-09-19T05:19:49;15.80;99.90
5210;DHT22;2624;48.048;11.706;2023-09-19T05:24:51;16.00;99.90
5210;DHT22;2624;48.048;11.706;2023-09-19T05:29:53;15.90;99.90
5210;DHT22;2624;48.048;11.706;2023-09-19T05:34:57;15.90;99.90
5210;DHT22;2624;48.048;11.706;2023-09-19T05:39:59;15.90;99.90
5210;DHT22;2624;48.048;11.706;2023-09-19T05:45:01;15.90;99.90
5210;DHT22;2624;48.048;11.706;2023-09-19T05:50:05;16.00;99.90
5210;DHT22;2624;48.048;11.706;2023-09-19T05:55:08;15.80;99.90
5210;DHT22;2624;48.048;11.706;2023-09-19T06:00:12;15.90;99.90
5210;DHT22;2624;48.048;11.706;2023-09-19T06:05:16;15.80;99.90
5210;DHT22;2624;48.048;11.706;2023-09-19T06:10:18;15.80;99.90
5210;DHT22;2624;48.048;11.706;2023-09-19T06:15:21;15.90;99.90
5210;DHT22;2624;48.048;11.706;2023-09-19T06:20:26;16.00;99.90
5210;DHT22;2624;48.048;11.706;2023-09-19T06:25:28;16.00;99.90
5210;DHT22;2624;48.048;11.706;2023-09-19T06:30:30;16.10;99.90
5210;DHT22;2624;48.048;11.706;2023-09-19T06:35:34;16.10;99.90
5210;DHT22;2624;48.048;11.706;2023-09-19T06:40:36;16.30;99.90
5210;DHT22;2624;48.048;11.706;2023-09-19T06:45:38;16.30;99.90
5210;DHT22;2624;48.048;11.706;2023-09-19T06:50:41;16.40;99.90
5210;DHT22;2624;48.048;11.706;2023-09-19T06:55:44;16.50;99.90
5210;DHT22;2624;48.048;11.706;2023-09-19T07:00:46;16.60;99.90
5210;DHT22;2624;48.048;11.706;2023-09-19T07:05:49;16.60;99.90
5210;DHT22;2624;48.048;11.706;2023-09-19T07:10:51;16.50;99.90
5210;DHT22;2624;48.048;11.706;2023-09-19T07:15:54;16.70;99.90
5210;DHT22;2624;48.048;11.706;2023-09-19T07:20:58;16.80;99.90
5210;DHT22;2624;48.048;11.706;2023-09-19T07:26:05;16.70;99.90
5210;DHT22;2624;48.048;11.706;2023-09-19T07:31:07;16.70;99.90
5210;DHT22;2624;48.048;11.706;2023-09-19T07:36:12;16.70;99.90
5210;DHT22;2624;48.048;11.706;2023-09-19T07:41:14;16.70;99.90
5210;DHT22;2624;48.048;11.706;2023-09-19T07:46:16;16.70;99.90
5210;DHT22;2624;48.048;11.706;2023-09-19T07:51:19;16.70;99.90
5210;DHT22;2624;48.048;11.706;2023-09-19T07:56:21;16.90;99.90
5210;DHT22;2624;48.048;11.706;2023-09-19T08:01:23;17.00;99.90
5210;DHT22;2624;48.048;11.706;2023-09-19T08:06:26;16.90;99.90
5210;DHT22;2624;48.048;11.706;2023-09-19T08:11:30;17.00;99.90
5210;DHT22;2624;48.048;11.706;2023-09-19T08:16:33;17.00;99.90
5210;DHT22;2624;48.048;11.706;2023-09-19T08:21:36;16.90;99.90
5210;DHT22;2624;48.048;11.706;2023-09-19T08:26:38;17.00;99.90
5210;DHT22;2624;48.048;11.706;2023-09-19T08:31:40;17.20;99.90
5210;DHT22;2624;48.048;11.706;2023-09-19T08:36:43;17.10;99.90
5210;DHT22;2624;48.048;11.706;2023-09-19T08:41:46;17.30;99.90
5210;DHT22;2624;48.048;11.706;2023-09-19T08:46:49;17.30;99.90
5210;DHT22;2624;48.048;11.706;2023-09-19T08:52:05;17.50;99.90
5210;DHT22;2624;48.048;11.706;2023-09-19T08:57:08;17.70;99.90
5210;DHT22;2624;48.048;11.706;2023-09-19T09:02:12;17.70;99.90
5210;DHT22;2624;48.048;11.706;2023-09-19T09:07:16;18.30;99.90
5210;DHT22;2624;48.048;11.706;2023-09-19T09:12:20;18.20;99.90
5210;DHT22;2624;48.048;11.706;2023-09-19T09:17:21;18.00;99.90
5210;DHT22;2624;48.048;11.706;2023-09-19T09:22:25;18.00;99.90
5210;DHT22;2624;48.048;11.706;2023-09-19T09:27:27;18.20;99.90
5210;DHT22;2624;48.048;11.706;2023-09-19T09:32:30;18.10;99.90
5210;DHT22;2624;48.048;11.706;2023-09-19T09:37:36;18.00;99.90
5210;DHT22;2624;48.048;11.706;2023-09-19T09:42:39;18.00;99.90
5210;DHT22;2624;48.048;11.706;2023-09-19T09:47:42;17.90;99.90
5210;DHT22;2624;48.048;11.706;2023-09-19T09:52:51;18.10;99.90
5210;DHT22;2624;48.048;11.706;2023-09-19T09:58:16;19.10;99.90
5210;DHT22;2624;48.048;11.706;2023-09-19T10:03:19;18.80;99.90
5210;DHT22;2624;48.048;11.706;2023-09-19T10:08:24;18.60;99.90
5210;DHT22;2624;48.048;11.706;2023-09-19T10:13:32;18.20;99.90
5210;DHT22;2624;48.048;11.706;2023-09-19T10:18:38;18.30;99.90
5210;DHT22;2624;48.048;11.706;2023-09-19T10:23:44;18.80;99.90
5210;DHT22;2624;48.048;11.706;2023-09-19T10:28:47;19.20;99.90
5210;DHT22;2624;48.048;11.706;2023-09-19T10:33:51;19.80;99.90
5210;DHT22;2624;48.048;11.706;2023-09-19T10:38:57;19.30;99.90
5210;DHT22;2624;48.048;11.706;2023-09-19T10:44:03;19.10;99.90
5210;DHT22;2624;48.048;11.706;2023-09-19T10:49:06;19.50;99.90
5210;DHT22;2624;48.048;11.706;2023-09-19T10:54:16;19.50;99.90
5210;DHT22;2624;48.048;11.706;2023-09-19T10:59:21;20.40;99.90
5210;DHT22;2624;48.048;11.706;2023-09-19T11:04:26;20.00;99.90
5210;DHT22;2624;48.048;11.706;2023-09-19T11:09:48;20.10;99.90
5210;DHT22;2624;48.048;11.706;2023-09-19T11:14:52;20.30;99.90
5210;DHT22;2624;48.048;11.706;2023-09-19T11:20:21;20.20;99.90
5210;DHT22;2624;48.048;11.706;2023-09-19T11:25:43;20.50;99.90
5210;DHT22;2624;48.048;11.706;2023-09-19T11:30:49;20.10;99.90
5210;DHT22;2624;48.048;11.706;2023-09-19T11:36:03;20.40;99.90
5210;DHT22;2624;48.048;11.706;2023-09-19T11:41:40;20.20;99.90
5210;DHT22;2624;48.048;11.706;2023-09-19T11:46:52;20.50;99.90
5210;DHT22;2624;48.048;11.706;2023-09-19T11:51:55;21.20;99.90
5210;DHT22;2624;48.048;11.706;2023-09-19T11:57:00;21.20;99.90
5210;DHT22;2624;48.048;11.706;2023-09-19T12:02:04;21.00;99.90
5210;DHT22;2624;48.048;11.706;2023-09-19T12:07:10;21.10;99.90
5210;DHT22;2624;48.048;11.706;2023-09-19T12:12:22;21.40;99.90
5210;DHT22;2624;48.048;11.706;2023-09-19T12:17:35;21.50;99.90
5210;DHT22;2624;48.048;11.706;2023-09-19T12:22:39;21.20;99.90
5210;DHT22;2624;48.048;11.706;2023-09-19T12:27:44;21.20;99.90
5210;DHT22;2624;48.048;11.706;2023-09-19T12:32:47;21.20;99.90
5210;DHT22;2624;48.048;11.706;2023-09-19T12:37:52;21.40;99.90
5210;DHT22;2624;48.048;11.706;2023-09-19T12:42:57;21.50;99.90
5210;DHT22;2624;48.048;11.706;2023-09-19T12:48:18;21.40;99.90
5210;DHT22;2624;48.048;11.706;2023-09-19T12:53:25;21.30;99.90
5210;DHT22;2624;48.048;11.706;2023-09-19T12:58:31;21.50;99.90
5210;DHT22;2624;48.048;11.706;2023-09-19T13:03:34;21.60;99.90
5210;DHT22;2624;48.048;11.706;2023-09-19T13:08:37;22.10;99.90
5210;DHT22;2624;48.048;11.706;2023-09-19T13:13:45;22.00;99.90
5210;DHT22;2624;48.048;11.706;2023-09-19T13:18:50;22.10;99.90
5210;DHT22;2624;48.048;11.706;2023-09-19T13:23:54;22.10;99.90
5210;DHT22;2624;48.048;11.706;2023-09-19T13:29:01;22.00;99.90
5210;DHT22;2624;48.048;11.706;2023-09-19T13:34:03;22.20;99.90
5210;DHT22;2624;48.048;11.706;2023-09-19T13:39:04;21.70;99.90
5210;DHT22;2624;48.048;11.706;2023-09-19T13:44:10;21.80;99.90
5210;DHT22;2624;48.048;11.706;2023-09-19T13:49:13;21.90;99.90
5210;DHT22;2624;48.048;11.706;2023-09-19T13:54:14;22.20;99.90
5210;DHT22;2624;48.048;11.706;2023-09-19T13:59:17;22.10;99.90
5210;DHT22;2624;48.048;11.706;2023-09-19T14:04:20;22.30;99.90
5210;DHT22;2624;48.048;11.706;2023-09-19T14:09:22;22.20;99.90
5210;DHT22;2624;48.048;11.706;2023-09-19T14:14:26;22.00;99.90
5210;DHT22;2624;48.048;11.706;2023-09-19T14:19:28;22.00;99.90
5210;DHT22;2624;48.048;11.706;2023-09-19T14:24:30;22.00;99.90
5210;DHT22;2624;48.048;11.706;2023-09-19T14:29:33;22.00;99.90
5210;DHT22;2624;48.048;11.706;2023-09-19T14:34:35;21.90;99.90
5210;DHT22;2624;48.048;11.706;2023-09-19T14:39:42;21.90;99.90
5210;DHT22;2624;48.048;11.706;2023-09-19T14:44:46;21.90;99.90
5210;DHT22;2624;48.048;11.706;2023-09-19T14:49:49;22.00;99.90
5210;DHT22;2624;48.048;11.706;2023-09-19T14:54:50;21.90;99.90
5210;DHT22;2624;48.048;11.706;2023-09-19T14:59:55;21.80;99.90
5210;DHT22;2624;48.048;11.706;2023-09-19T15:04:56;21.80;99.90
5210;DHT22;2624;48.048;11.706;2023-09-19T15:09:58;21.70;99.90
5210;DHT22;2624;48.048;11.706;2023-09-19T15:15:02;21.70;99.90
5210;DHT22;2624;48.048;11.706;2023-09-19T15:20:06;21.70;99.90
5210;DHT22;2624;48.048;11.706;2023-09-19T15:25:08;21.70;99.90
5210;DHT22;2624;48.048;11.706;2023-09-19T15:30:12;21.70;99.90
5210;DHT22;2624;48.048;11.706;2023-09-19T15:35:15;21.60;99.90
5210;DHT22;2624;48.048;11.706;2023-09-19T15:40:18;21.50;99.90
5210;DHT22;2624;48.048;11.706;2023-09-19T15:45:21;21.40;99.90
5210;DHT22;2624;48.048;11.706;2023-09-19T15:50:23;21.30;99.90
5210;DHT22;2624;48.048;11.706;2023-09-19T15:55:26;21.30;99.90
5210;DHT22;2624;48.048;11.706;2023-09-19T16:00:29;21.30;99.90
5210;DHT22;2624;48.048;11.706;2023-09-19T16:05:35;21.20;99.90
5210;DHT22;2624;48.048;11.706;2023-09-19T16:10:40;21.20;99.90
5210;DHT22;2624;48.048;11.706;2023-09-19T16:15:43;21.20;99.90
5210;DHT22;2624;48.048;11.706;2023-09-19T16:20:45;21.20;99.90
5210;DHT22;2624;48.048;11.706;2023-09-19T16:25:47;21.10;99.90
5210;DHT22;2624;48.048;11.706;2023-09-19T16:30:50;21.00;99.90
5210;DHT22;2624;48.048;11.706;2023-09-19T16:35:52;21.00;99.90
5210;DHT22;2624;48.048;11.706;2023-09-19T16:40:55;21.00;99.90
5210;DHT22;2624;48.048;11.706;2023-09-19T16:45:59;21.10;99.90
5210;DHT22;2624;48.048;11.706;2023-09-19T16:51:03;20.90;99.90
5210;DHT22;2624;48.048;11.706;2023-09-19T16:56:06;20.90;99.90
5210;DHT22;2624;48.048;11.706;2023-09-19T17:01:11;20.90;99.90
5210;DHT22;2624;48.048;11.706;2023-09-19T17:06:15;20.80;99.90
5210;DHT22;2624;48.048;11.706;2023-09-19T17:11:18;20.80;99.90
5210;DHT22;2624;48.048;11.706;2023-09-19T17:16:22;20.80;99.90
5210;DHT22;2624;48.048;11.706;2023-09-19T17:21:26;20.80;99.90
5210;DHT22;2624;48.048;11.706;2023-09-19T17:26:28;20.30;99.90
5210;DHT22;2624;48.048;11.706;2023-09-19T17:31:31;20.00;99.90
5210;DHT22;2624;48.048;11.706;2023-09-19T17:36:33;20.00;99.90
5210;DHT22;2624;48.048;11.706;2023-09-19T17:41:36;19.90;99.90
5210;DHT22;2624;48.048;11.706;2023-09-19T17:46:39;19.70;99.90
5210;DHT22;2624;48.048;11.706;2023-09-19T17:51:41;19.60;99.90
5210;DHT22;2624;48.048;11.706;2023-09-19T17:56:43;19.60;99.90
5210;DHT22;2624;48.048;11.706;2023-09-19T18:01:46;19.50;99.90
5210;DHT22;2624;48.048;11.706;2023-09-19T18:06:48;19.30;99.90
5210;DHT22;2624;48.048;11.706;2023-09-19T18:11:50;19.40;99.90
5210;DHT22;2624;48.048;11.706;2023-09-19T18:16:53;19.60;99.90
5210;DHT22;2624;48.048;11.706;2023-09-19T18:21:58;19.60;99.90
5210;DHT22;2624;48.048;11.706;2023-09-19T18:27:04;19.60;99.90
5210;DHT22;2624;48.048;11.706;2023-09-19T18:32:07;19.40;99.90
5210;DHT22;2624;48.048;11.706;2023-09-19T18:37:10;19.50;99.90
5210;DHT22;2624;48.048;11.706;2023-09-19T18:42:12;19.50;99.90
5210;DHT22;2624;48.048;11.706;2023-09-19T18:47:15;19.60;99.90
5210;DHT22;2624;48.048;11.706;2023-09-19T18:52:17;19.20;99.90
5210;DHT22;2624;48.048;11.706;2023-09-19T18:57:19;19.60;99.90
5210;DHT22;2624;48.048;11.706;2023-09-19T19:02:22;19.30;99.90
5210;DHT22;2624;48.048;11.706;2023-09-19T19:07:24;18.90;99.90
5210;DHT22;2624;48.048;11.706;2023-09-19T19:12:26;19.30;99.90
5210;DHT22;2624;48.048;11.706;2023-09-19T19:17:29;19.50;99.90
5210;DHT22;2624;48.048;11.706;2023-09-19T19:22:31;19.40;99.90
5210;DHT22;2624;48.048;11.706;2023-09-19T19:27:34;18.90;99.90
5210;DHT22;2624;48.048;11.706;2023-09-19T19:32:37;18.10;99.90
5210;DHT22;2624;48.048;11.706;2023-09-19T19:37:39;18.20;99.90
5210;DHT22;2624;48.048;11.706;2023-09-19T19:42:41;18.50;99.90
5210;DHT22;2624;48.048;11.706;2023-09-19T19:47:44;18.20;99.90
5210;DHT22;2624;48.048;11.706;2023-09-19T19:52:50;18.70;99.90
5210;DHT22;2624;48.048;11.706;2023-09-19T19:57:53;18.80;99.90
5210;DHT22;2624;48.048;11.706;2023-09-19T20:02:57;17.90;99.90
5210;DHT22;2624;48.048;11.706;2023-09-19T20:07:58;17.90;99.90
5210;DHT22;2624;48.048;11.706;2023-09-19T20:13:00;17.90;99.90
5210;DHT22;2624;48.048;11.706;2023-09-19T20:18:09;17.50;99.90
5210;DHT22;2624;48.048;11.706;2023-09-19T20:23:12;16.90;99.90
5210;DHT22;2624;48.048;11.706;2023-09-19T20:28:15;17.00;99.90
5210;DHT22;2624;48.048;11.706;2023-09-19T20:33:18;17.10;99.90
5210;DHT22;2624;48.048;11.706;2023-09-19T20:38:20;16.80;99.90
5210;DHT22;2624;48.048;11.706;2023-09-19T20:43:23;16.70;99.90
5210;DHT22;2624;48.048;11.706;2023-09-19T20:48:26;16.70;99.90
5210;DHT22;2624;48.048;11.706;2023-09-19T20:53:28;17.20;99.90
5210;DHT22;2624;48.048;11.706;2023-09-19T20:58:31;17.10;99.90
5210;DHT22;2624;48.048;11.706;2023-09-19T21:03:36;17.10;99.90
5210;DHT22;2624;48.048;11.706;2023-09-19T21:08:38;16.90;99.90
5210;DHT22;2624;48.048;11.706;2023-09-19T21:13:41;17.20;99.90
5210;DHT22;2624;48.048;11.706;2023-09-19T21:18:45;16.80;99.90
5210;DHT22;2624;48.048;11.706;2023-09-19T21:23:47;17.00;99.90
5210;DHT22;2624;48.048;11.706;2023-09-19T21:28:49;16.90;99.90
5210;DHT22;2624;48.048;11.706;2023-09-19T21:33:53;16.80;99.90
5210;DHT22;2624;48.048;11.706;2023-09-19T21:38:56;16.80;99.90
5210;DHT22;2624;48.048;11.706;2023-09-19T21:43:58;17.10;99.90
5210;DHT22;2624;48.048;11.706;2023-09-19T21:49:01;17.10;99.90
5210;DHT22;2624;48.048;11.706;2023-09-19T21:54:03;16.50;99.90
5210;DHT22;2624;48.048;11.706;2023-09-19T21:59:05;16.50;99.90
5210;DHT22;2624;48.048;11.706;2023-09-19T22:04:08;16.70;99.90
5210;DHT22;2624;48.048;11.706;2023-09-19T22:09:10;16.80;99.90
5210;DHT22;2624;48.048;11.706;2023-09-19T22:14:12;16.40;99.90
5210;DHT22;2624;48.048;11.706;2023-09-19T22:19:15;16.90;99.90
5210;DHT22;2624;48.048;11.706;2023-09-19T22:24:17;16.40;99.90
5210;DHT22;2624;48.048;11.706;2023-09-19T22:29:21;16.50;99.90
5210;DHT22;2624;48.048;11.706;2023-09-19T22:34:25;16.20;99.90
5210;DHT22;2624;48.048;11.706;2023-09-19T22:39:27;16.20;99.90
5210;DHT22;2624;48.048;11.706;2023-09-19T22:44:29;16.10;99.90
5210;DHT22;2624;48.048;11.706;2023-09-19T22:49:34;16.20;99.90
5210;DHT22;2624;48.048;11.706;2023-09-19T22:54:38;16.20;99.90
5210;DHT22;2624;48.048;11.706;2023-09-19T22:59:41;16.30;99.90
5210;DHT22;2624;48.048;11.706;2023-09-19T23:04:44;16.00;99.90
5210;DHT22;2624;48.048;11.706;2023-09-19T23:09:46;15.80;99.90
5210;DHT22;2624;48.048;11.706;2023-09-19T23:14:48;15.90;99.90
5210;DHT22;2624;48.048;11.706;2023-09-19T23:19:51;16.00;99.90
5210;DHT22;2624;48.048;11.706;2023-09-19T23:24:55;15.80;99.90
5210;DHT22;2624;48.048;11.706;2023-09-19T23:30:13;15.70;99.90
5210;DHT22;2624;48.048;11.706;2023-09-19T23:35:20;15.80;99.90
5210;DHT22;2624;48.048;11.706;2023-09-19T23:40:23;16.10;99.90
5210;DHT22;2624;48.048;11.706;2023-09-19T23:45:27;15.90;99.90
5210;DHT22;2624;48.048;11.706;2023-09-19T23:50:31;15.90;99.90
5210;DHT22;2624;48.048;11.706;2023-09-19T23:55:35;15.60;99.90
